sensor_id;sensor_type;location;lat;lon;timestamp;P1;durP1;ratioP1;P2;durP2;ratioP2
57846;SDS011;43675;50.030;21.952;2023-02-01T00:02:09;45.20;;;41.80;;
57846;SDS011;43675;50.030;21.952;2023-02-01T00:04:36;45.10;;;41.60;;
57846;SDS011;43675;50.030;21.952;2023-02-01T00:07:02;45.60;;;42.20;;
57846;SDS011;43675;50.030;21.952;2023-02-01T00:09:29;45.40;;;42.00;;
57846;SDS011;43675;50.030;21.952;2023-02-01T00:11:56;46.20;;;42.80;;
57846;SDS011;43675;50.030;21.952;2023-02-01T00:14:22;47.20;;;43.60;;
57846;SDS011;43675;50.030;21.952;2023-02-01T00:16:49;45.70;;;42.30;;
57846;SDS011;43675;50.030;21.952;2023-02-01T00:19:15;45.10;;;41.50;;
57846;SDS011;43675;50.030;21.952;2023-02-01T00:21:42;44.10;;;40.80;;
57846;SDS011;43675;50.030;21.952;2023-02-01T00:24:09;44.60;;;41.10;;
57846;SDS011;43675;50.030;21.952;2023-02-01T00:26:37;48.10;;;44.30;;
57846;SDS011;43675;50.030;21.952;2023-02-01T00:29:12;49.40;;;45.60;;
57846;SDS011;43675;50.030;21.952;2023-02-01T00:31:43;50.20;;;46.50;;
57846;SDS011;43675;50.030;21.952;2023-02-01T00:34:14;51.00;;;47.00;;
57846;SDS011;43675;50.030;21.952;2023-02-01T00:36:42;50.60;;;46.60;;
57846;SDS011;43675;50.030;21.952;2023-02-01T00:39:10;51.30;;;47.50;;
57846;SDS011;43675;50.030;21.952;2023-02-01T00:41:37;49.70;;;45.90;;
57846;SDS011;43675;50.030;21.952;2023-02-01T00:44:04;49.00;;;45.20;;
57846;SDS011;43675;50.030;21.952;2023-02-01T00:46:30;49.50;;;45.80;;
57846;SDS011;43675;50.030;21.952;2023-02-01T00:48:57;50.70;;;47.00;;
57846;SDS011;43675;50.030;21.952;2023-02-01T00:51:25;51.70;;;47.70;;
57846;SDS011;43675;50.030;21.952;2023-02-01T00:53:53;51.60;;;47.60;;
57846;SDS011;43675;50.030;21.952;2023-02-01T00:56:20;48.70;;;45.10;;
57846;SDS011;43675;50.030;21.952;2023-02-01T00:58:46;47.30;;;43.90;;
57846;SDS011;43675;50.030;21.952;2023-02-01T01:01:15;47.50;;;44.00;;
57846;SDS011;43675;50.030;21.952;2023-02-01T01:03:46;47.40;;;44.00;;
57846;SDS011;43675;50.030;21.952;2023-02-01T01:06:15;47.90;;;44.40;;
57846;SDS011;43675;50.030;21.952;2023-02-01T01:08:45;47.90;;;44.50;;
57846;SDS011;43675;50.030;21.952;2023-02-01T01:11:16;44.30;;;41.20;;
57846;SDS011;43675;50.030;21.952;2023-02-01T01:13:48;46.40;;;43.10;;
57846;SDS011;43675;50.030;21.952;2023-02-01T01:16:16;45.70;;;42.40;;
57846;SDS011;43675;50.030;21.952;2023-02-01T01:18:44;47.40;;;43.90;;
57846;SDS011;43675;50.030;21.952;2023-02-01T01:21:12;44.90;;;41.60;;
57846;SDS011;43675;50.030;21.952;2023-02-01T01:23:40;46.60;;;43.10;;
57846;SDS011;43675;50.030;21.952;2023-02-01T01:26:08;46.20;;;42.90;;
57846;SDS011;43675;50.030;21.952;2023-02-01T01:28:38;45.70;;;42.50;;
57846;SDS011;43675;50.030;21.952;2023-02-01T01:31:07;44.00;;;40.80;;
57846;SDS011;43675;50.030;21.952;2023-02-01T01:33:35;44.60;;;41.40;;
57846;SDS011;43675;50.030;21.952;2023-02-01T01:36:06;46.50;;;43.20;;
57846;SDS011;43675;50.030;21.952;2023-02-01T01:38:34;44.30;;;41.20;;
57846;SDS011;43675;50.030;21.952;2023-02-01T01:41:01;42.30;;;39.40;;
57846;SDS011;43675;50.030;21.952;2023-02-01T01:43:44;42.10;;;39.20;;
57846;SDS011;43675;50.030;21.952;2023-02-01T01:46:24;41.10;;;38.30;;
57846;SDS011;43675;50.030;21.952;2023-02-01T01:49:04;41.90;;;39.00;;
57846;SDS011;43675;50.030;21.952;2023-02-01T01:51:36;39.90;;;37.20;;
57846;SDS011;43675;50.030;21.952;2023-02-01T01:56:42;39.70;;;37.00;;
57846;SDS011;43675;50.030;21.952;2023-02-01T01:59:13;38.40;;;35.70;;
57846;SDS011;43675;50.030;21.952;2023-02-01T02:01:40;38.80;;;36.10;;
57846;SDS011;43675;50.030;21.952;2023-02-01T02:04:07;40.30;;;37.40;;
57846;SDS011;43675;50.030;21.952;2023-02-01T02:06:37;38.50;;;35.90;;
57846;SDS011;43675;50.030;21.952;2023-02-01T02:09:08;39.50;;;36.70;;
57846;SDS011;43675;50.030;21.952;2023-02-01T02:11:34;36.70;;;34.20;;
57846;SDS011;43675;50.030;21.952;2023-02-01T02:14:01;36.20;;;33.70;;
57846;SDS011;43675;50.030;21.952;2023-02-01T02:24:39;33.20;;;31.10;;
57846;SDS011;43675;50.030;21.952;2023-02-01T02:29:52;32.40;;;30.10;;
57846;SDS011;43675;50.030;21.952;2023-02-01T02:35:10;31.90;;;29.60;;
57846;SDS011;43675;50.030;21.952;2023-02-01T02:38:26;31.90;;;29.70;;
57846;SDS011;43675;50.030;21.952;2023-02-01T02:43:46;32.30;;;30.00;;
57846;SDS011;43675;50.030;21.952;2023-02-01T02:46:24;33.40;;;31.10;;
57846;SDS011;43675;50.030;21.952;2023-02-01T02:49:13;32.20;;;30.00;;
57846;SDS011;43675;50.030;21.952;2023-02-01T02:51:46;33.00;;;30.70;;
57846;SDS011;43675;50.030;21.952;2023-02-01T02:54:19;33.70;;;31.40;;
57846;SDS011;43675;50.030;21.952;2023-02-01T02:56:56;33.50;;;31.20;;
57846;SDS011;43675;50.030;21.952;2023-02-01T02:59:25;34.60;;;32.20;;
57846;SDS011;43675;50.030;21.952;2023-02-01T03:01:54;36.00;;;33.40;;
57846;SDS011;43675;50.030;21.952;2023-02-01T03:04:21;35.10;;;32.60;;
57846;SDS011;43675;50.030;21.952;2023-02-01T03:06:48;34.90;;;32.60;;
57846;SDS011;43675;50.030;21.952;2023-02-01T03:09:17;35.60;;;33.10;;
57846;SDS011;43675;50.030;21.952;2023-02-01T03:14:18;34.00;;;31.40;;
57846;SDS011;43675;50.030;21.952;2023-02-01T03:16:52;32.40;;;30.20;;
57846;SDS011;43675;50.030;21.952;2023-02-01T03:19:31;33.00;;;30.80;;
57846;SDS011;43675;50.030;21.952;2023-02-01T03:24:37;32.60;;;30.30;;
57846;SDS011;43675;50.030;21.952;2023-02-01T03:29:46;31.30;;;29.10;;
57846;SDS011;43675;50.030;21.952;2023-02-01T03:32:33;32.00;;;29.50;;
57846;SDS011;43675;50.030;21.952;2023-02-01T03:35:02;32.10;;;29.90;;
57846;SDS011;43675;50.030;21.952;2023-02-01T03:37:29;31.30;;;28.90;;
57846;SDS011;43675;50.030;21.952;2023-02-01T03:40:00;26.00;;;24.00;;
57846;SDS011;43675;50.030;21.952;2023-02-01T03:42:38;26.60;;;24.70;;
57846;SDS011;43675;50.030;21.952;2023-02-01T03:45:10;29.60;;;27.20;;
57846;SDS011;43675;50.030;21.952;2023-02-01T03:47:39;26.90;;;24.60;;
57846;SDS011;43675;50.030;21.952;2023-02-01T03:50:10;27.60;;;25.70;;
57846;SDS011;43675;50.030;21.952;2023-02-01T03:55:18;34.20;;;31.80;;
57846;SDS011;43675;50.030;21.952;2023-02-01T04:00:36;41.10;;;38.00;;
57846;SDS011;43675;50.030;21.952;2023-02-01T04:03:03;31.90;;;29.00;;
57846;SDS011;43675;50.030;21.952;2023-02-01T04:05:31;32.30;;;29.80;;
57846;SDS011;43675;50.030;21.952;2023-02-01T04:07:58;41.90;;;38.60;;
57846;SDS011;43675;50.030;21.952;2023-02-01T04:10:25;44.20;;;40.80;;
57846;SDS011;43675;50.030;21.952;2023-02-01T04:12:52;45.40;;;41.90;;
57846;SDS011;43675;50.030;21.952;2023-02-01T04:15:18;45.10;;;41.60;;
57846;SDS011;43675;50.030;21.952;2023-02-01T04:17:45;47.80;;;44.30;;
57846;SDS011;43675;50.030;21.952;2023-02-01T04:20:11;46.30;;;42.70;;
57846;SDS011;43675;50.030;21.952;2023-02-01T04:22:38;43.80;;;40.60;;
57846;SDS011;43675;50.030;21.952;2023-02-01T04:25:05;45.00;;;41.50;;
57846;SDS011;43675;50.030;21.952;2023-02-01T04:27:32;42.00;;;38.70;;
57846;SDS011;43675;50.030;21.952;2023-02-01T04:29:58;41.20;;;38.30;;
57846;SDS011;43675;50.030;21.952;2023-02-01T04:32:25;42.20;;;39.00;;
57846;SDS011;43675;50.030;21.952;2023-02-01T04:34:52;41.20;;;38.30;;
57846;SDS011;43675;50.030;21.952;2023-02-01T04:37:18;43.00;;;39.80;;
57846;SDS011;43675;50.030;21.952;2023-02-01T04:39:45;42.60;;;39.50;;
57846;SDS011;43675;50.030;21.952;2023-02-01T04:42:12;41.60;;;38.50;;
57846;SDS011;43675;50.030;21.952;2023-02-01T04:44:38;40.60;;;37.50;;
57846;SDS011;43675;50.030;21.952;2023-02-01T04:47:05;38.50;;;35.40;;
57846;SDS011;43675;50.030;21.952;2023-02-01T04:49:31;35.70;;;32.90;;
57846;SDS011;43675;50.030;21.952;2023-02-01T04:51:58;33.50;;;31.10;;
57846;SDS011;43675;50.030;21.952;2023-02-01T04:54:24;36.40;;;32.90;;
57846;SDS011;43675;50.030;21.952;2023-02-01T04:56:51;39.00;;;36.00;;
57846;SDS011;43675;50.030;21.952;2023-02-01T04:59:17;36.30;;;33.10;;
57846;SDS011;43675;50.030;21.952;2023-02-01T05:01:44;28.50;;;26.00;;
57846;SDS011;43675;50.030;21.952;2023-02-01T05:04:11;29.70;;;26.70;;
57846;SDS011;43675;50.030;21.952;2023-02-01T05:06:37;26.70;;;24.30;;
57846;SDS011;43675;50.030;21.952;2023-02-01T05:09:04;27.80;;;25.60;;
57846;SDS011;43675;50.030;21.952;2023-02-01T05:11:31;27.30;;;24.80;;
57846;SDS011;43675;50.030;21.952;2023-02-01T05:13:58;28.60;;;26.20;;
57846;SDS011;43675;50.030;21.952;2023-02-01T05:16:25;29.20;;;26.70;;
57846;SDS011;43675;50.030;21.952;2023-02-01T05:18:53;27.40;;;25.10;;
57846;SDS011;43675;50.030;21.952;2023-02-01T05:21:20;26.80;;;24.50;;
57846;SDS011;43675;50.030;21.952;2023-02-01T05:23:47;27.50;;;25.20;;
57846;SDS011;43675;50.030;21.952;2023-02-01T05:26:13;26.10;;;24.00;;
57846;SDS011;43675;50.030;21.952;2023-02-01T05:28:40;26.80;;;24.20;;
57846;SDS011;43675;50.030;21.952;2023-02-01T05:31:10;25.00;;;22.80;;
57846;SDS011;43675;50.030;21.952;2023-02-01T05:33:37;24.90;;;22.60;;
57846;SDS011;43675;50.030;21.952;2023-02-01T05:36:03;23.20;;;21.00;;
57846;SDS011;43675;50.030;21.952;2023-02-01T05:38:30;25.10;;;22.90;;
57846;SDS011;43675;50.030;21.952;2023-02-01T05:40:57;25.40;;;22.90;;
57846;SDS011;43675;50.030;21.952;2023-02-01T05:43:23;24.60;;;22.30;;
57846;SDS011;43675;50.030;21.952;2023-02-01T05:45:53;24.70;;;22.40;;
57846;SDS011;43675;50.030;21.952;2023-02-01T05:48:19;23.80;;;21.20;;
57846;SDS011;43675;50.030;21.952;2023-02-01T05:50:46;23.60;;;21.30;;
57846;SDS011;43675;50.030;21.952;2023-02-01T05:53:13;23.90;;;21.40;;
57846;SDS011;43675;50.030;21.952;2023-02-01T05:55:39;21.00;;;19.30;;
57846;SDS011;43675;50.030;21.952;2023-02-01T05:58:07;22.80;;;20.30;;
57846;SDS011;43675;50.030;21.952;2023-02-01T06:00:34;22.80;;;20.70;;
57846;SDS011;43675;50.030;21.952;2023-02-01T06:03:01;21.40;;;19.20;;
57846;SDS011;43675;50.030;21.952;2023-02-01T06:05:28;22.70;;;20.60;;
57846;SDS011;43675;50.030;21.952;2023-02-01T06:07:54;22.70;;;19.90;;
57846;SDS011;43675;50.030;21.952;2023-02-01T06:10:21;21.20;;;19.30;;
57846;SDS011;43675;50.030;21.952;2023-02-01T06:12:48;20.50;;;18.50;;
57846;SDS011;43675;50.030;21.952;2023-02-01T06:15:15;21.90;;;19.60;;
57846;SDS011;43675;50.030;21.952;2023-02-01T06:17:43;21.20;;;18.80;;
57846;SDS011;43675;50.030;21.952;2023-02-01T06:20:11;19.60;;;18.00;;
57846;SDS011;43675;50.030;21.952;2023-02-01T06:22:40;20.10;;;18.30;;
57846;SDS011;43675;50.030;21.952;2023-02-01T06:25:07;20.90;;;19.00;;
57846;SDS011;43675;50.030;21.952;2023-02-01T06:27:35;21.90;;;19.90;;
57846;SDS011;43675;50.030;21.952;2023-02-01T06:30:03;21.60;;;19.30;;
57846;SDS011;43675;50.030;21.952;2023-02-01T06:32:31;20.50;;;18.60;;
57846;SDS011;43675;50.030;21.952;2023-02-01T06:34:57;19.20;;;17.60;;
57846;SDS011;43675;50.030;21.952;2023-02-01T06:37:24;20.20;;;17.90;;
57846;SDS011;43675;50.030;21.952;2023-02-01T06:39:51;19.10;;;17.50;;
57846;SDS011;43675;50.030;21.952;2023-02-01T06:42:17;20.90;;;18.70;;
57846;SDS011;43675;50.030;21.952;2023-02-01T06:44:44;20.40;;;17.40;;
57846;SDS011;43675;50.030;21.952;2023-02-01T06:47:10;21.70;;;17.20;;
57846;SDS011;43675;50.030;21.952;2023-02-01T06:49:37;18.90;;;17.10;;
57846;SDS011;43675;50.030;21.952;2023-02-01T06:52:04;18.50;;;16.50;;
57846;SDS011;43675;50.030;21.952;2023-02-01T06:54:30;18.30;;;16.50;;
57846;SDS011;43675;50.030;21.952;2023-02-01T06:56:57;18.70;;;16.70;;
57846;SDS011;43675;50.030;21.952;2023-02-01T06:59:23;19.00;;;17.00;;
57846;SDS011;43675;50.030;21.952;2023-02-01T07:01:50;18.60;;;16.80;;
57846;SDS011;43675;50.030;21.952;2023-02-01T07:04:16;19.90;;;16.20;;
57846;SDS011;43675;50.030;21.952;2023-02-01T07:06:43;18.50;;;16.50;;
57846;SDS011;43675;50.030;21.952;2023-02-01T07:09:09;18.40;;;16.40;;
57846;SDS011;43675;50.030;21.952;2023-02-01T07:11:36;18.80;;;15.50;;
57846;SDS011;43675;50.030;21.952;2023-02-01T07:14:03;20.40;;;15.40;;
57846;SDS011;43675;50.030;21.952;2023-02-01T07:16:29;18.70;;;15.30;;
57846;SDS011;43675;50.030;21.952;2023-02-01T07:18:56;18.10;;;16.10;;
57846;SDS011;43675;50.030;21.952;2023-02-01T07:21:22;18.10;;;16.30;;
57846;SDS011;43675;50.030;21.952;2023-02-01T07:23:49;23.50;;;16.80;;
57846;SDS011;43675;50.030;21.952;2023-02-01T07:26:15;19.40;;;16.20;;
57846;SDS011;43675;50.030;21.952;2023-02-01T07:28:42;20.00;;;16.50;;
57846;SDS011;43675;50.030;21.952;2023-02-01T07:31:13;23.40;;;16.30;;
57846;SDS011;43675;50.030;21.952;2023-02-01T07:33:41;22.20;;;16.40;;
57846;SDS011;43675;50.030;21.952;2023-02-01T07:36:10;18.10;;;16.20;;
57846;SDS011;43675;50.030;21.952;2023-02-01T07:38:38;18.60;;;16.40;;
57846;SDS011;43675;50.030;21.952;2023-02-01T07:41:05;17.90;;;16.00;;
57846;SDS011;43675;50.030;21.952;2023-02-01T07:43:32;20.00;;;16.90;;
57846;SDS011;43675;50.030;21.952;2023-02-01T07:45:59;17.80;;;16.00;;
57846;SDS011;43675;50.030;21.952;2023-02-01T07:48:27;17.20;;;15.40;;
57846;SDS011;43675;50.030;21.952;2023-02-01T07:51:04;19.70;;;16.80;;
57846;SDS011;43675;50.030;21.952;2023-02-01T07:53:34;18.70;;;16.60;;
57846;SDS011;43675;50.030;21.952;2023-02-01T07:56:01;18.50;;;16.40;;
57846;SDS011;43675;50.030;21.952;2023-02-01T07:58:29;18.80;;;15.80;;
57846;SDS011;43675;50.030;21.952;2023-02-01T08:00:55;18.90;;;16.70;;
57846;SDS011;43675;50.030;21.952;2023-02-01T08:03:22;19.40;;;16.40;;
57846;SDS011;43675;50.030;21.952;2023-02-01T08:05:53;20.40;;;16.60;;
57846;SDS011;43675;50.030;21.952;2023-02-01T08:08:20;21.00;;;16.90;;
57846;SDS011;43675;50.030;21.952;2023-02-01T08:10:48;24.40;;;18.40;;
57846;SDS011;43675;50.030;21.952;2023-02-01T08:13:14;22.70;;;18.70;;
57846;SDS011;43675;50.030;21.952;2023-02-01T08:15:41;25.60;;;20.10;;
57846;SDS011;43675;50.030;21.952;2023-02-01T08:18:08;22.20;;;18.10;;
57846;SDS011;43675;50.030;21.952;2023-02-01T08:20:34;22.70;;;18.40;;
57846;SDS011;43675;50.030;21.952;2023-02-01T08:23:01;21.70;;;18.00;;
57846;SDS011;43675;50.030;21.952;2023-02-01T08:25:28;20.30;;;17.80;;
57846;SDS011;43675;50.030;21.952;2023-02-01T08:27:55;21.10;;;18.00;;
57846;SDS011;43675;50.030;21.952;2023-02-01T08:30:22;20.90;;;18.70;;
57846;SDS011;43675;50.030;21.952;2023-02-01T08:32:48;22.90;;;17.60;;
57846;SDS011;43675;50.030;21.952;2023-02-01T08:35:15;20.00;;;17.80;;
57846;SDS011;43675;50.030;21.952;2023-02-01T08:37:41;25.60;;;19.70;;
57846;SDS011;43675;50.030;21.952;2023-02-01T08:40:08;26.50;;;18.60;;
57846;SDS011;43675;50.030;21.952;2023-02-01T08:42:35;26.50;;;20.20;;
57846;SDS011;43675;50.030;21.952;2023-02-01T08:45:02;25.80;;;19.30;;
57846;SDS011;43675;50.030;21.952;2023-02-01T08:47:30;23.00;;;19.40;;
57846;SDS011;43675;50.030;21.952;2023-02-01T08:49:57;25.70;;;17.70;;
57846;SDS011;43675;50.030;21.952;2023-02-01T08:52:23;25.00;;;18.30;;
57846;SDS011;43675;50.030;21.952;2023-02-01T08:54:50;21.10;;;17.60;;
57846;SDS011;43675;50.030;21.952;2023-02-01T08:57:17;19.90;;;17.60;;
57846;SDS011;43675;50.030;21.952;2023-02-01T08:59:43;18.50;;;16.70;;
57846;SDS011;43675;50.030;21.952;2023-02-01T09:02:14;19.70;;;17.60;;
57846;SDS011;43675;50.030;21.952;2023-02-01T09:04:41;20.50;;;17.70;;
57846;SDS011;43675;50.030;21.952;2023-02-01T09:07:09;20.30;;;17.00;;
57846;SDS011;43675;50.030;21.952;2023-02-01T09:09:37;20.80;;;17.20;;
57846;SDS011;43675;50.030;21.952;2023-02-01T09:12:04;21.60;;;17.40;;
57846;SDS011;43675;50.030;21.952;2023-02-01T09:14:31;21.10;;;17.30;;
57846;SDS011;43675;50.030;21.952;2023-02-01T09:16:57;22.70;;;17.60;;
57846;SDS011;43675;50.030;21.952;2023-02-01T09:19:24;20.20;;;17.10;;
57846;SDS011;43675;50.030;21.952;2023-02-01T09:21:50;20.70;;;16.80;;
57846;SDS011;43675;50.030;21.952;2023-02-01T09:24:17;24.80;;;17.40;;
57846;SDS011;43675;50.030;21.952;2023-02-01T09:26:43;20.90;;;17.10;;
57846;SDS011;43675;50.030;21.952;2023-02-01T09:29:10;19.10;;;16.70;;
57846;SDS011;43675;50.030;21.952;2023-02-01T09:31:37;21.40;;;17.50;;
57846;SDS011;43675;50.030;21.952;2023-02-01T09:34:06;22.80;;;18.10;;
57846;SDS011;43675;50.030;21.952;2023-02-01T09:36:33;20.70;;;17.00;;
57846;SDS011;43675;50.030;21.952;2023-02-01T09:39:00;19.40;;;16.90;;
57846;SDS011;43675;50.030;21.952;2023-02-01T09:44:29;21.70;;;17.20;;
57846;SDS011;43675;50.030;21.952;2023-02-01T09:46:59;18.20;;;16.30;;
57846;SDS011;43675;50.030;21.952;2023-02-01T09:49:28;20.60;;;16.30;;
57846;SDS011;43675;50.030;21.952;2023-02-01T09:52:00;19.20;;;16.50;;
57846;SDS011;43675;50.030;21.952;2023-02-01T09:55:15;22.90;;;16.10;;
57846;SDS011;43675;50.030;21.952;2023-02-01T09:57:25;22.20;;;16.30;;
57846;SDS011;43675;50.030;21.952;2023-02-01T10:00:05;23.30;;;16.70;;
57846;SDS011;43675;50.030;21.952;2023-02-01T10:02:38;19.80;;;16.80;;
57846;SDS011;43675;50.030;21.952;2023-02-01T10:05:11;21.60;;;16.70;;
57846;SDS011;43675;50.030;21.952;2023-02-01T10:15:58;22.20;;;17.30;;
57846;SDS011;43675;50.030;21.952;2023-02-01T10:18:51;21.90;;;16.30;;
57846;SDS011;43675;50.030;21.952;2023-02-01T10:29:44;21.90;;;17.00;;
57846;SDS011;43675;50.030;21.952;2023-02-01T10:32:15;18.50;;;16.50;;
57846;SDS011;43675;50.030;21.952;2023-02-01T10:34:44;23.80;;;18.00;;
57846;SDS011;43675;50.030;21.952;2023-02-01T10:37:20;22.10;;;16.50;;
57846;SDS011;43675;50.030;21.952;2023-02-01T10:39:59;19.30;;;15.90;;
57846;SDS011;43675;50.030;21.952;2023-02-01T10:42:44;20.00;;;16.20;;
57846;SDS011;43675;50.030;21.952;2023-02-01T10:45:19;20.00;;;16.70;;
57846;SDS011;43675;50.030;21.952;2023-02-01T10:47:48;17.80;;;16.00;;
57846;SDS011;43675;50.030;21.952;2023-02-01T10:50:17;21.80;;;16.80;;
57846;SDS011;43675;50.030;21.952;2023-02-01T10:53:01;19.20;;;17.30;;
57846;SDS011;43675;50.030;21.952;2023-02-01T10:55:34;20.10;;;16.60;;
57846;SDS011;43675;50.030;21.952;2023-02-01T10:58:01;19.30;;;17.50;;
57846;SDS011;43675;50.030;21.952;2023-02-01T11:00:36;20.00;;;18.00;;
57846;SDS011;43675;50.030;21.952;2023-02-01T11:06:34;21.70;;;17.70;;
57846;SDS011;43675;50.030;21.952;2023-02-01T11:11:32;19.40;;;16.80;;
57846;SDS011;43675;50.030;21.952;2023-02-01T11:14:20;20.30;;;17.50;;
57846;SDS011;43675;50.030;21.952;2023-02-01T11:16:55;23.70;;;17.90;;
57846;SDS011;43675;50.030;21.952;2023-02-01T11:19:24;24.10;;;17.50;;
57846;SDS011;43675;50.030;21.952;2023-02-01T11:21:51;20.80;;;17.60;;
57846;SDS011;43675;50.030;21.952;2023-02-01T11:24:23;19.40;;;16.40;;
57846;SDS011;43675;50.030;21.952;2023-02-01T11:26:56;19.20;;;16.90;;
57846;SDS011;43675;50.030;21.952;2023-02-01T11:29:24;18.40;;;15.80;;
57846;SDS011;43675;50.030;21.952;2023-02-01T11:31:56;18.40;;;16.30;;
57846;SDS011;43675;50.030;21.952;2023-02-01T11:34:25;17.60;;;15.30;;
57846;SDS011;43675;50.030;21.952;2023-02-01T11:36:58;19.50;;;16.60;;
57846;SDS011;43675;50.030;21.952;2023-02-01T11:39:32;18.90;;;16.90;;
57846;SDS011;43675;50.030;21.952;2023-02-01T11:42:04;18.50;;;16.60;;
57846;SDS011;43675;50.030;21.952;2023-02-01T11:44:42;18.10;;;16.20;;
57846;SDS011;43675;50.030;21.952;2023-02-01T11:47:21;17.60;;;15.90;;
57846;SDS011;43675;50.030;21.952;2023-02-01T11:50:00;17.50;;;15.80;;
57846;SDS011;43675;50.030;21.952;2023-02-01T12:13:46;19.80;;;17.90;;
57846;SDS011;43675;50.030;21.952;2023-02-01T12:16:34;24.50;;;18.80;;
57846;SDS011;43675;50.030;21.952;2023-02-01T12:24:39;20.10;;;17.90;;
57846;SDS011;43675;50.030;21.952;2023-02-01T12:46:52;18.60;;;17.00;;
57846;SDS011;43675;50.030;21.952;2023-02-01T12:52:26;20.80;;;18.40;;
57846;SDS011;43675;50.030;21.952;2023-02-01T12:57:43;21.20;;;19.20;;
57846;SDS011;43675;50.030;21.952;2023-02-01T13:00:19;20.10;;;18.00;;
57846;SDS011;43675;50.030;21.952;2023-02-01T13:03:00;19.80;;;17.70;;
57846;SDS011;43675;50.030;21.952;2023-02-01T13:05:39;19.30;;;17.30;;
57846;SDS011;43675;50.030;21.952;2023-02-01T13:08:18;19.20;;;17.30;;
57846;SDS011;43675;50.030;21.952;2023-02-01T13:10:58;21.50;;;18.30;;
57846;SDS011;43675;50.030;21.952;2023-02-01T13:27:03;20.90;;;17.40;;
57846;SDS011;43675;50.030;21.952;2023-02-01T13:29:29;19.70;;;17.70;;
57846;SDS011;43675;50.030;21.952;2023-02-01T13:32:18;19.80;;;17.70;;
57846;SDS011;43675;50.030;21.952;2023-02-01T13:43:29;20.70;;;18.40;;
57846;SDS011;43675;50.030;21.952;2023-02-01T13:46:07;21.60;;;18.70;;
57846;SDS011;43675;50.030;21.952;2023-02-01T13:48:38;22.70;;;20.40;;
57846;SDS011;43675;50.030;21.952;2023-02-01T13:51:07;20.20;;;17.80;;
57846;SDS011;43675;50.030;21.952;2023-02-01T13:53:35;19.90;;;18.20;;
57846;SDS011;43675;50.030;21.952;2023-02-01T13:56:04;21.80;;;18.30;;
57846;SDS011;43675;50.030;21.952;2023-02-01T14:03:51;23.10;;;18.70;;
57846;SDS011;43675;50.030;21.952;2023-02-01T14:11:53;20.30;;;17.40;;
57846;SDS011;43675;50.030;21.952;2023-02-01T14:21:59;21.40;;;18.40;;
57846;SDS011;43675;50.030;21.952;2023-02-01T14:24:29;19.30;;;17.30;;
57846;SDS011;43675;50.030;21.952;2023-02-01T14:27:19;22.30;;;17.90;;
57846;SDS011;43675;50.030;21.952;2023-02-01T14:29:51;20.00;;;17.60;;
57846;SDS011;43675;50.030;21.952;2023-02-01T14:32:30;22.20;;;18.00;;
57846;SDS011;43675;50.030;21.952;2023-02-01T14:35:00;21.20;;;18.10;;
57846;SDS011;43675;50.030;21.952;2023-02-01T14:37:32;22.00;;;19.40;;
57846;SDS011;43675;50.030;21.952;2023-02-01T14:40:04;21.50;;;18.30;;
57846;SDS011;43675;50.030;21.952;2023-02-01T15:00:46;18.00;;;16.20;;
57846;SDS011;43675;50.030;21.952;2023-02-01T15:06:15;20.80;;;18.10;;
57846;SDS011;43675;50.030;21.952;2023-02-01T15:09:09;23.10;;;19.40;;
57846;SDS011;43675;50.030;21.952;2023-02-01T15:14:42;20.90;;;17.40;;
57846;SDS011;43675;50.030;21.952;2023-02-01T15:17:31;18.20;;;16.30;;
57846;SDS011;43675;50.030;21.952;2023-02-01T15:19:58;18.50;;;16.40;;
57846;SDS011;43675;50.030;21.952;2023-02-01T15:22:27;21.40;;;19.00;;
57846;SDS011;43675;50.030;21.952;2023-02-01T15:24:57;23.30;;;19.40;;
57846;SDS011;43675;50.030;21.952;2023-02-01T15:27:29;19.90;;;18.00;;
57846;SDS011;43675;50.030;21.952;2023-02-01T15:30:07;20.90;;;16.90;;
57846;SDS011;43675;50.030;21.952;2023-02-01T15:32:42;20.00;;;17.30;;
57846;SDS011;43675;50.030;21.952;2023-02-01T15:43:44;29.70;;;22.00;;
57846;SDS011;43675;50.030;21.952;2023-02-01T15:46:32;27.30;;;21.80;;
57846;SDS011;43675;50.030;21.952;2023-02-01T15:49:00;30.70;;;21.90;;
57846;SDS011;43675;50.030;21.952;2023-02-01T15:51:27;21.70;;;19.20;;
57846;SDS011;43675;50.030;21.952;2023-02-01T15:53:57;22.30;;;18.70;;
57846;SDS011;43675;50.030;21.952;2023-02-01T15:56:34;25.20;;;19.90;;
57846;SDS011;43675;50.030;21.952;2023-02-01T15:59:06;23.10;;;18.40;;
57846;SDS011;43675;50.030;21.952;2023-02-01T16:01:42;20.50;;;17.60;;
57846;SDS011;43675;50.030;21.952;2023-02-01T16:04:22;18.80;;;16.80;;
57846;SDS011;43675;50.030;21.952;2023-02-01T16:06:58;15.70;;;14.30;;
57846;SDS011;43675;50.030;21.952;2023-02-01T16:09:36;17.70;;;15.90;;
57846;SDS011;43675;50.030;21.952;2023-02-01T16:12:20;16.40;;;14.60;;
57846;SDS011;43675;50.030;21.952;2023-02-01T16:14:54;21.00;;;17.60;;
57846;SDS011;43675;50.030;21.952;2023-02-01T16:17:21;23.80;;;18.30;;
57846;SDS011;43675;50.030;21.952;2023-02-01T16:19:47;20.10;;;17.80;;
57846;SDS011;43675;50.030;21.952;2023-02-01T16:22:14;18.90;;;16.90;;
57846;SDS011;43675;50.030;21.952;2023-02-01T16:24:40;22.00;;;19.50;;
57846;SDS011;43675;50.030;21.952;2023-02-01T16:27:07;20.90;;;18.70;;
57846;SDS011;43675;50.030;21.952;2023-02-01T16:29:33;21.20;;;18.10;;
57846;SDS011;43675;50.030;21.952;2023-02-01T16:32:00;19.10;;;16.70;;
57846;SDS011;43675;50.030;21.952;2023-02-01T16:34:27;19.30;;;17.20;;
57846;SDS011;43675;50.030;21.952;2023-02-01T16:36:53;19.20;;;17.30;;
57846;SDS011;43675;50.030;21.952;2023-02-01T16:39:20;21.10;;;18.20;;
57846;SDS011;43675;50.030;21.952;2023-02-01T16:41:47;23.60;;;21.40;;
57846;SDS011;43675;50.030;21.952;2023-02-01T16:44:14;24.50;;;22.10;;
57846;SDS011;43675;50.030;21.952;2023-02-01T16:46:41;24.90;;;22.40;;
57846;SDS011;43675;50.030;21.952;2023-02-01T16:49:17;24.50;;;22.40;;
57846;SDS011;43675;50.030;21.952;2023-02-01T16:51:46;25.30;;;22.80;;
57846;SDS011;43675;50.030;21.952;2023-02-01T16:54:15;25.70;;;23.20;;
57846;SDS011;43675;50.030;21.952;2023-02-01T16:56:42;26.10;;;23.60;;
57846;SDS011;43675;50.030;21.952;2023-02-01T16:59:11;25.90;;;23.50;;
57846;SDS011;43675;50.030;21.952;2023-02-01T17:01:40;24.80;;;22.60;;
57846;SDS011;43675;50.030;21.952;2023-02-01T17:04:08;24.90;;;22.60;;
57846;SDS011;43675;50.030;21.952;2023-02-01T17:06:35;26.90;;;24.20;;
57846;SDS011;43675;50.030;21.952;2023-02-01T17:09:03;29.30;;;26.20;;
57846;SDS011;43675;50.030;21.952;2023-02-01T17:11:30;27.40;;;24.70;;
57846;SDS011;43675;50.030;21.952;2023-02-01T17:14:08;31.30;;;26.50;;
57846;SDS011;43675;50.030;21.952;2023-02-01T17:16:44;32.10;;;26.90;;
57846;SDS011;43675;50.030;21.952;2023-02-01T17:19:13;32.50;;;26.50;;
57846;SDS011;43675;50.030;21.952;2023-02-01T17:21:46;25.80;;;23.30;;
57846;SDS011;43675;50.030;21.952;2023-02-01T17:24:15;25.60;;;23.40;;
57846;SDS011;43675;50.030;21.952;2023-02-01T17:26:43;23.30;;;20.90;;
57846;SDS011;43675;50.030;21.952;2023-02-01T17:29:10;22.70;;;20.40;;